Time;durP1;ratioP1;P1;durP2;ratioP2;P2;SDS_P1;SDS_P2;PMS_P1;PMS_P2;Temp;Humidity;BMP_temperature;BMP_pressure;BME280_temperature;BME280_humidity;BME280_pressure;Samples;Min_cycle;Max_cycle;Signal;HPM_P1;HPM_P2
2021/08/26 00:00:17;;;;;;;16.30;8.90;;;;;;;12.70;78.35;100106.77;1410791;92;21509;-87
2021/08/26 00:05:50;;;;;;;15.97;9.10;;;;;;;12.73;78.53;100105.92;1413350;92;21716;-88
2021/08/26 00:08:20;;;;;;;14.27;7.43;;;;;;;12.75;78.74;100099.13;1409783;92;21502;-88
2021/08/26 00:10:47;;;;;;;14.23;8.03;;;;;;;12.76;78.81;100096.28;1385540;94;21584;-88
2021/08/26 00:13:15;;;;;;;14.77;8.10;;;;;;;12.77;79.22;100093.12;1386564;94;21473;-87
2021/08/26 00:15:45;;;;;;;14.97;8.40;;;;;;;12.77;78.68;100087.81;1389344;94;21472;-87
2021/08/26 00:18:12;;;;;;;14.98;8.45;;;;;;;12.75;78.71;100084.52;1417131;92;21649;-87
2021/08/26 00:20:38;;;;;;;14.43;7.47;;;;;;;12.73;78.70;100078.54;1396120;94;21607;-87
2021/08/26 00:23:05;;;;;;;14.23;7.73;;;;;;;12.72;78.76;100080.38;1408873;93;22530;-87
2021/08/26 00:25:32;;;;;;;10.93;8.03;;;;;;;12.71;78.82;100077.87;1410520;92;21487;-87
2021/08/26 00:27:58;;;;;;;14.87;6.90;;;;;;;12.70;78.98;100076.23;1406691;92;21702;-88
2021/08/26 00:30:25;;;;;;;12.20;7.17;;;;;;;12.70;78.88;100069.59;1396277;93;21496;-88
2021/08/26 00:32:52;;;;;;;12.20;7.60;;;;;;;12.71;78.95;100061.94;1424303;92;21508;-88
2021/08/26 00:35:18;;;;;;;13.53;9.03;;;;;;;12.69;78.94;100064.78;1414494;91;21458;-88
2021/08/26 00:37:44;;;;;;;13.13;8.03;;;;;;;12.67;78.87;100060.64;1409457;92;21585;-87
2021/08/26 00:40:11;;;;;;;14.23;7.53;;;;;;;12.60;79.35;100057.34;1406409;92;21496;-87
2021/08/26 00:42:39;;;;;;;16.30;8.10;;;;;;;12.56;79.32;100054.67;1436322;91;21456;-87
2021/08/26 00:45:07;;;;;;;15.77;8.43;;;;;;;12.51;80.38;100049.04;1430435;91;21492;-88
2021/08/26 00:47:34;;;;;;;12.70;7.20;;;;;;;12.46;81.79;100046.09;1443570;91;21522;-87
2021/08/26 00:50:01;;;;;;;13.90;7.43;;;;;;;12.40;82.18;100044.11;1437263;91;21799;-87
2021/08/26 00:52:27;;;;;;;12.17;7.43;;;;;;;12.30;82.80;100039.47;1428827;91;22476;-88
2021/08/26 00:54:55;;;;;;;15.10;7.43;;;;;;;12.26;82.71;100035.51;1435618;91;21471;-88
2021/08/26 00:57:25;;;;;;;16.13;8.00;;;;;;;12.22;82.38;100032.84;1437334;91;22455;-86
2021/08/26 00:59:55;;;;;;;15.32;7.35;;;;;;;12.19;82.11;100027.37;1438491;91;21441;-86
2021/08/26 01:02:35;;;;;;;13.53;7.93;;;;;;;12.14;82.31;100017.28;1432651;91;21537;-87
2021/08/26 01:05:31;;;;;;;12.95;6.65;;;;;;;12.11;82.81;100020.74;1413557;92;21488;-86
2021/08/26 01:08:02;;;;;;;11.80;7.30;;;;;;;12.10;82.67;100019.09;1417018;92;22358;-86
2021/08/26 01:10:30;;;;;;;11.37;7.13;;;;;;;12.07;83.21;100014.95;1416682;92;21978;-86
2021/08/26 01:12:58;;;;;;;15.80;8.03;;;;;;;12.04;83.61;100007.84;1399567;93;21539;-87
2021/08/26 01:15:27;;;;;;;14.60;8.10;;;;;;;12.00;83.21;100006.02;1423045;92;21424;-87
2021/08/26 01:17:54;;;;;;;12.00;6.60;;;;;;;11.92;83.24;100005.52;1418458;92;21627;-86
2021/08/26 01:20:21;;;;;;;14.87;8.43;;;;;;;11.87;83.13;100010.98;1425624;92;22554;-88
2021/08/26 01:22:49;;;;;;;13.67;7.87;;;;;;;11.81;83.79;100006.32;1390520;93;21509;-88
2021/08/26 01:25:22;;;;;;;15.53;8.23;;;;;;;11.84;83.08;99999.36;1420094;92;21661;-87
2021/08/26 01:28:00;;;;;;;11.37;7.63;;;;;;;11.86;83.32;100002.71;1393074;93;21524;-88
2021/08/26 01:30:30;;;;;;;15.83;8.93;;;;;;;11.90;83.12;100000.05;1421671;92;22142;-88
2021/08/26 01:33:00;;;;;;;12.37;7.20;;;;;;;11.96;82.79;100000.70;1400970;93;21479;-88
2021/08/26 01:35:29;;;;;;;18.20;8.10;;;;;;;12.05;82.43;100004.17;1418058;92;21488;-87
2021/08/26 01:37:56;;;;;;;17.40;8.50;;;;;;;12.09;82.45;99995.73;1397003;93;21494;-87
2021/08/26 01:40:40;;;;;;;13.00;8.20;;;;;;;12.14;81.61;99994.73;1422221;92;21759;-87
2021/08/26 01:43:12;;;;;;;15.57;8.40;;;;;;;12.17;81.23;99997.55;1382370;93;21626;-87
2021/08/26 01:45:43;;;;;;;11.20;7.37;;;;;;;12.21;81.00;99996.20;1424735;92;21496;-87
2021/08/26 01:48:10;;;;;;;14.28;9.28;;;;;;;12.26;80.96;99991.73;1400860;93;21555;-87
2021/08/26 01:50:36;;;;;;;12.10;7.60;;;;;;;12.31;80.69;99988.05;1399534;92;22316;-87
2021/08/26 01:53:04;;;;;;;15.37;8.23;;;;;;;12.38;80.44;99989.05;1420952;92;21599;-87
2021/08/26 01:55:31;;;;;;;16.27;8.27;;;;;;;12.45;80.09;99982.04;1421653;92;21489;-87
2021/08/26 01:58:01;;;;;;;15.07;9.10;;;;;;;12.48;79.78;99983.02;1396909;93;21554;-87
2021/08/26 02:00:27;;;;;;;13.07;8.23;;;;;;;12.49;79.26;99979.39;1419502;92;21451;-87
2021/08/26 02:02:53;;;;;;;13.77;8.53;;;;;;;12.49;78.96;99971.94;1396440;93;21699;-88
2021/08/26 02:05:19;;;;;;;19.20;9.30;;;;;;;12.48;79.05;99979.05;1423324;92;21681;-87
2021/08/26 02:07:51;;;;;;;13.93;8.37;;;;;;;12.49;79.05;99971.42;1421018;91;21635;-88
2021/08/26 02:10:17;;;;;;;13.63;7.97;;;;;;;12.47;79.35;99972.09;1391084;93;21622;-87
2021/08/26 02:12:43;;;;;;;14.07;8.03;;;;;;;12.45;80.16;99972.75;1417785;92;21479;-87
2021/08/26 02:15:10;;;;;;;15.60;9.50;;;;;;;12.44;80.12;99969.78;1424707;92;21430;-88
2021/08/26 02:17:37;;;;;;;14.43;8.80;;;;;;;12.39;80.50;99968.13;1423383;92;21570;-87
2021/08/26 02:20:06;;;;;;;10.90;6.77;;;;;;;12.38;80.25;99971.79;1400396;93;21560;-88
2021/08/26 02:22:32;;;;;;;12.20;8.40;;;;;;;12.34;80.71;99966.00;1421953;92;21532;-87
2021/08/26 02:24:58;;;;;;;14.27;7.87;;;;;;;12.34;80.75;99966.00;1392931;93;21601;-87
2021/08/26 02:27:25;;;;;;;11.77;7.07;;;;;;;12.32;81.66;99962.69;1428017;92;21600;-87
2021/08/26 02:29:51;;;;;;;14.30;7.27;;;;;;;12.32;81.39;99957.88;1417927;92;21464;-88
2021/08/26 02:32:17;;;;;;;13.10;6.77;;;;;;;12.33;81.44;99953.72;1416000;92;21731;-87
2021/08/26 02:34:44;;;;;;;11.83;7.17;;;;;;;12.32;81.78;99956.55;1413034;91;21480;-86
2021/08/26 02:37:10;;;;;;;11.70;6.67;;;;;;;12.30;81.02;99958.04;1407676;92;21691;-86
2021/08/26 02:39:37;;;;;;;11.40;7.90;;;;;;;12.23;81.51;99953.09;1411249;92;21486;-86
2021/08/26 02:42:04;;;;;;;12.27;7.37;;;;;;;12.19;82.53;99952.59;1410453;92;21456;-88
2021/08/26 02:44:30;;;;;;;12.33;6.40;;;;;;;12.18;82.69;99958.90;1412142;92;21620;-87
2021/08/26 02:46:57;;;;;;;12.63;7.27;;;;;;;12.16;82.17;99960.06;1401790;93;21450;-87
2021/08/26 02:49:24;;;;;;;13.43;6.70;;;;;;;12.17;82.33;99953.27;1391492;94;22418;-87
2021/08/26 02:51:50;;;;;;;13.97;8.90;;;;;;;12.16;81.63;99958.23;1401086;94;21536;-87
2021/08/26 02:54:16;;;;;;;10.17;6.03;;;;;;;12.16;81.64;99960.88;1394698;94;21443;-88
2021/08/26 02:56:43;;;;;;;11.50;7.37;;;;;;;12.16;82.42;99951.59;1397764;94;21495;-88
2021/08/26 02:59:09;;;;;;;13.40;7.47;;;;;;;12.18;82.04;99958.90;1394616;94;22953;-88
2021/08/26 03:01:35;;;;;;;13.67;8.80;;;;;;;12.18;82.18;99957.57;1399661;91;21442;-87
2021/08/26 03:04:01;;;;;;;14.70;7.70;;;;;;;12.19;82.32;99957.89;1418693;92;21604;-88
2021/08/26 03:06:27;;;;;;;11.97;7.23;;;;;;;12.20;82.37;99958.75;1415848;92;22352;-87
2021/08/26 03:08:53;;;;;;;23.23;9.63;;;;;;;12.23;82.91;99954.89;1410979;92;21516;-88
2021/08/26 03:11:19;;;;;;;12.00;7.60;;;;;;;12.30;81.96;99950.58;1417494;92;21523;-88
2021/08/26 03:13:45;;;;;;;10.37;6.83;;;;;;;12.37;81.54;99952.87;1416573;92;21553;-89
2021/08/26 03:16:11;;;;;;;11.07;7.70;;;;;;;12.43;81.27;99954.87;1411256;92;21413;-89
2021/08/26 03:18:37;;;;;;;18.10;8.77;;;;;;;12.45;81.25;99952.84;1416093;92;21495;-88
2021/08/26 03:21:04;;;;;;;12.57;8.07;;;;;;;12.49;80.62;99958.16;1410236;91;21472;-88
2021/08/26 03:23:30;;;;;;;13.37;7.47;;;;;;;12.47;81.24;99952.19;1418530;92;22454;-88
2021/08/26 03:25:56;;;;;;;13.07;8.17;;;;;;;12.48;80.95;99953.83;1415964;92;21458;-88
2021/08/26 03:28:22;;;;;;;16.17;7.60;;;;;;;12.45;81.99;99951.52;1421033;90;22491;-88
2021/08/26 03:30:49;;;;;;;16.10;7.53;;;;;;;12.49;81.84;99956.83;1445642;90;21485;-87
2021/08/26 03:33:15;;;;;;;11.23;6.83;;;;;;;12.50;81.65;99955.82;1440068;90;21486;-87
2021/08/26 03:35:41;;;;;;;13.37;8.07;;;;;;;12.50;81.63;99958.47;1434404;90;21833;-87
2021/08/26 03:38:08;;;;;;;11.33;7.20;;;;;;;12.50;80.89;99957.15;1451047;90;21492;-87
2021/08/26 03:40:34;;;;;;;15.53;9.20;;;;;;;12.50;80.80;99958.47;1449690;90;22350;-87
2021/08/26 03:43:00;;;;;;;18.10;8.57;;;;;;;12.48;80.75;99956.48;1453651;90;21552;-88
2021/08/26 03:45:26;;;;;;;16.00;8.50;;;;;;;12.46;80.43;99958.50;1441835;90;21493;-87
2021/08/26 03:47:52;;;;;;;14.30;8.23;;;;;;;12.46;80.62;99954.52;1447431;90;21642;-87
2021/08/26 03:50:19;;;;;;;14.20;8.60;;;;;;;12.45;80.65;99950.19;1436863;90;21592;-87
2021/08/26 03:52:45;;;;;;;15.40;9.03;;;;;;;12.44;81.04;99949.05;1446820;90;22447;-87
2021/08/26 03:55:11;;;;;;;15.83;10.03;;;;;;;12.39;81.42;99944.24;1424594;90;21539;-87
2021/08/26 03:57:37;;;;;;;16.80;9.20;;;;;;;12.34;81.30;99939.94;1425610;92;21486;-87
2021/08/26 04:00:04;;;;;;;18.13;8.80;;;;;;;12.30;81.14;99947.42;1425369;92;21583;-87
2021/08/26 04:02:30;;;;;;;16.67;8.53;;;;;;;12.29;80.92;99947.11;1420649;92;21576;-87
2021/08/26 04:04:56;;;;;;;23.20;8.87;;;;;;;12.27;80.94;99950.92;1430308;92;22550;-88
2021/08/26 04:07:23;;;;;;;15.87;8.30;;;;;;;12.22;82.62;99943.97;1435974;90;21667;-88
2021/08/26 04:09:49;;;;;;;15.07;8.00;;;;;;;12.21;82.19;99942.32;1446328;90;22468;-87
2021/08/26 04:12:15;;;;;;;16.83;8.47;;;;;;;12.21;81.93;99941.81;1440261;90;21599;-87
2021/08/26 04:14:41;;;;;;;12.50;8.67;;;;;;;12.22;81.76;99939.98;1443423;90;21390;-87
2021/08/26 04:17:07;;;;;;;14.87;7.83;;;;;;;12.22;81.83;99938.16;1440804;90;21412;-86
2021/08/26 04:19:34;;;;;;;15.13;7.93;;;;;;;12.25;81.46;99934.34;1445067;90;22380;-87
2021/08/26 04:22:00;;;;;;;12.63;8.60;;;;;;;12.26;81.25;99934.69;1442290;90;21463;-88
2021/08/26 04:24:26;;;;;;;14.53;7.77;;;;;;;12.25;81.23;99935.16;1443670;90;22423;-88
2021/08/26 04:26:52;;;;;;;21.97;8.50;;;;;;;12.24;81.44;99928.72;1418621;90;21427;-86
2021/08/26 04:29:18;;;;;;;15.20;8.13;;;;;;;12.26;81.38;99931.53;1437490;90;21575;-85
2021/08/26 04:31:44;;;;;;;15.20;8.27;;;;;;;12.31;81.27;99933.66;1436431;91;21642;-85
2021/08/26 04:34:11;;;;;;;12.77;8.53;;;;;;;12.35;81.22;99935.80;1437024;91;21499;-85
2021/08/26 04:36:37;;;;;;;15.13;9.03;;;;;;;12.39;81.16;99936.28;1434221;91;22498;-85
2021/08/26 04:39:03;;;;;;;15.83;10.03;;;;;;;12.42;80.86;99935.94;1432966;91;21525;-85
2021/08/26 04:41:29;;;;;;;19.00;9.77;;;;;;;12.45;80.78;99938.25;1426477;91;22338;-85
2021/08/26 04:43:55;;;;;;;15.13;8.90;;;;;;;12.48;80.63;99931.77;1416859;91;22522;-86
2021/08/26 04:46:22;;;;;;;20.13;8.93;;;;;;;12.50;80.60;99928.45;1424501;92;21413;-86
2021/08/26 04:48:48;;;;;;;13.67;8.20;;;;;;;12.56;80.69;99929.91;1419441;91;21679;-85
2021/08/26 04:51:14;;;;;;;15.33;8.20;;;;;;;12.60;80.75;99932.56;1421749;92;21890;-85
2021/08/26 04:53:41;;;;;;;15.60;9.10;;;;;;;12.65;80.83;99926.22;1427345;92;21882;-85
2021/08/26 04:56:07;;;;;;;15.73;9.30;;;;;;;12.71;80.66;99923.37;1431847;91;21531;-86
2021/08/26 04:58:33;;;;;;;15.13;8.50;;;;;;;12.78;80.58;99923.52;1429892;91;21457;-86
2021/08/26 05:00:59;;;;;;;15.30;9.33;;;;;;;12.86;80.52;99922.16;1425926;91;22418;-86
2021/08/26 05:03:25;;;;;;;14.30;8.70;;;;;;;12.95;80.46;99922.42;1420359;91;21687;-86
2021/08/26 05:05:51;;;;;;;16.37;8.80;;;;;;;13.02;80.83;99919.38;1426487;92;21450;-86
2021/08/26 05:08:17;;;;;;;13.77;8.23;;;;;;;13.12;80.58;99915.19;1420362;92;22610;-87
2021/08/26 05:10:43;;;;;;;12.97;7.07;;;;;;;13.22;80.33;99916.27;1419708;92;21510;-86
2021/08/26 05:13:09;;;;;;;19.63;9.60;;;;;;;13.32;80.18;99915.55;1417976;91;21421;-86
2021/08/26 05:15:39;;;;;;;12.63;8.37;;;;;;;13.42;80.05;99910.83;1406446;92;21648;-87
2021/08/26 05:18:08;;;;;;;15.75;9.18;;;;;;;13.50;79.83;99903.30;1418041;92;21568;-87
2021/08/26 05:20:35;;;;;;;14.40;8.23;;;;;;;13.58;79.89;99903.23;1428076;92;21376;-87
2021/08/26 05:23:01;;;;;;;14.60;9.73;;;;;;;13.68;79.43;99906.44;1424453;92;22507;-86
2021/08/26 05:25:27;;;;;;;13.50;8.70;;;;;;;13.79;79.34;99904.37;1428787;92;21532;-87
2021/08/26 05:27:53;;;;;;;16.50;8.63;;;;;;;13.84;79.09;99902.82;1414289;92;21576;-87
2021/08/26 05:30:20;;;;;;;15.10;9.40;;;;;;;13.90;78.94;99903.41;1416475;91;22362;-85
2021/08/26 05:32:46;;;;;;;22.23;9.73;;;;;;;13.99;78.77;99890.34;1413633;92;22322;-85
2021/08/26 05:35:13;;;;;;;15.60;10.47;;;;;;;14.11;78.47;99891.22;1414379;92;21644;-84
2021/08/26 05:37:38;;;;;;;16.27;10.90;;;;;;;14.14;77.67;99895.67;1393042;94;22474;-84
2021/08/26 05:40:07;;;;;;;16.87;9.87;;;;;;;14.19;77.54;99887.14;1374250;94;21503;-84
2021/08/26 05:42:33;;;;;;;18.73;10.60;;;;;;;14.23;77.13;99889.23;1417488;92;21642;-84
2021/08/26 05:44:59;;;;;;;17.77;9.57;;;;;;;14.21;76.38;99885.10;1417316;92;21452;-83
2021/08/26 05:47:26;;;;;;;19.70;9.60;;;;;;;14.25;76.64;99885.07;1426383;92;21475;-84
2021/08/26 05:49:52;;;;;;;15.97;11.40;;;;;;;14.34;76.84;99879.97;1397942;92;21496;-83
2021/08/26 05:52:25;;;;;;;19.87;12.03;;;;;;;14.42;76.38;99885.19;1402232;93;21617;-83
2021/08/26 05:54:51;;;;;;;21.70;11.40;;;;;;;14.49;76.17;99881.27;1410409;92;21519;-84
2021/08/26 05:57:17;;;;;;;18.27;12.87;;;;;;;14.58;76.00;99879.36;1393981;94;21482;-83
2021/08/26 05:59:43;;;;;;;25.13;11.50;;;;;;;14.68;75.75;99881.23;1400730;94;21446;-85
2021/08/26 06:02:10;;;;;;;21.60;13.53;;;;;;;14.75;75.18;99887.44;1373972;94;21480;-87
2021/08/26 06:04:36;;;;;;;21.33;12.50;;;;;;;14.86;75.39;99885.63;1415459;92;21481;-86
2021/08/26 06:07:03;;;;;;;20.40;11.90;;;;;;;14.98;73.65;99877.13;1422330;92;21525;-87
2021/08/26 06:09:29;;;;;;;19.40;12.27;;;;;;;15.10;74.07;99887.12;1399109;94;21461;-88
2021/08/26 06:11:55;;;;;;;17.80;13.20;;;;;;;15.25;73.67;99888.38;1398908;94;22429;-86
2021/08/26 06:14:21;;;;;;;18.40;13.87;;;;;;;15.33;73.08;99886.92;1386075;94;21466;-87
2021/08/26 06:16:47;;;;;;;21.33;12.83;;;;;;;15.42;72.81;99883.61;1413662;92;21654;-87
2021/08/26 06:19:13;;;;;;;18.20;12.93;;;;;;;15.51;72.32;99879.78;1416644;92;21660;-87
2021/08/26 06:21:39;;;;;;;19.10;14.20;;;;;;;15.65;72.11;99878.05;1419004;92;21481;-87
2021/08/26 06:24:07;;;;;;;26.80;14.00;;;;;;;15.75;71.38;99879.88;1420071;92;21459;-87
2021/08/26 06:26:35;;;;;;;20.83;13.07;;;;;;;15.87;71.16;99880.67;1419799;92;21621;-87
2021/08/26 06:29:01;;;;;;;24.67;13.20;;;;;;;15.99;70.73;99871.09;1421568;90;21650;-88
2021/08/26 06:31:27;;;;;;;23.73;12.50;;;;;;;16.11;68.48;99879.37;1403138;92;21830;-87
2021/08/26 06:33:53;;;;;;;18.80;12.70;;;;;;;16.23;69.68;99882.64;1404190;93;21682;-87
2021/08/26 06:36:20;;;;;;;24.00;12.40;;;;;;;16.36;69.08;99882.39;1382523;94;21599;-87
2021/08/26 06:38:46;;;;;;;20.80;13.40;;;;;;;16.42;68.02;99881.08;1407168;92;21985;-88
2021/08/26 06:41:12;;;;;;;21.33;14.57;;;;;;;16.45;67.36;99879.34;1414352;92;22516;-87
2021/08/26 06:43:38;;;;;;;21.53;13.40;;;;;;;16.53;67.37;99874.86;1394360;94;21402;-87
2021/08/26 06:46:04;;;;;;;22.43;14.47;;;;;;;16.58;66.42;99874.58;1397121;93;21492;-88
2021/08/26 06:48:31;;;;;;;21.80;13.57;;;;;;;16.65;66.37;99878.08;1399600;93;21557;-88
2021/08/26 06:50:57;;;;;;;18.77;13.63;;;;;;;16.71;65.86;99873.78;1409051;92;21408;-87
2021/08/26 06:53:23;;;;;;;19.20;14.00;;;;;;;16.75;63.96;99873.71;1398405;94;22385;-87
2021/08/26 06:55:49;;;;;;;19.70;13.53;;;;;;;16.78;63.80;99877.86;1398381;94;21387;-88
2021/08/26 06:58:16;;;;;;;21.57;14.43;;;;;;;16.87;63.93;99884.66;1422529;92;21489;-88
2021/08/26 07:00:42;;;;;;;21.70;14.57;;;;;;;16.95;62.14;99882.33;1413618;92;21430;-87
2021/08/26 07:03:08;;;;;;;29.37;13.77;;;;;;;16.98;62.97;99889.42;1416522;92;21467;-88
2021/08/26 07:05:34;;;;;;;22.03;12.27;;;;;;;17.08;62.83;99888.50;1392363;93;22671;-87
2021/08/26 07:08:00;;;;;;;20.83;14.50;;;;;;;17.11;61.44;99886.75;1386557;94;21475;-87
2021/08/26 07:10:27;;;;;;;19.43;14.03;;;;;;;17.21;62.55;99886.37;1410556;92;22332;-88
2021/08/26 07:12:53;;;;;;;29.50;15.90;;;;;;;17.26;60.76;99884.41;1395321;94;22465;-87
2021/08/26 07:15:22;;;;;;;21.40;14.40;;;;;;;17.34;61.06;99891.72;1382635;94;21489;-88
2021/08/26 07:17:47;;;;;;;46.07;14.63;;;;;;;17.43;60.94;99888.33;1409059;92;21445;-87
2021/08/26 07:20:13;;;;;;;21.03;14.10;;;;;;;17.53;59.90;99879.39;1394847;92;21481;-88
2021/08/26 07:22:40;;;;;;;19.80;12.90;;;;;;;17.57;58.63;99883.28;1396568;93;21505;-88
2021/08/26 07:25:06;;;;;;;25.60;14.03;;;;;;;17.64;58.94;99881.15;1392453;93;21684;-88
2021/08/26 07:27:33;;;;;;;40.83;13.10;;;;;;;17.71;57.22;99891.31;1414325;92;22479;-87
2021/08/26 07:29:59;;;;;;;18.97;13.20;;;;;;;17.78;58.46;99886.80;1415597;92;21519;-87
2021/08/26 07:32:25;;;;;;;21.90;13.13;;;;;;;17.88;58.29;99887.73;1413038;92;21437;-88
2021/08/26 07:34:51;;;;;;;21.07;13.70;;;;;;;17.98;58.31;99883.60;1414358;92;21467;-88
2021/08/26 07:37:17;;;;;;;22.73;13.57;;;;;;;18.10;57.58;99881.10;1413131;91;21357;-87
2021/08/26 07:39:44;;;;;;;22.23;13.07;;;;;;;18.04;56.72;99884.10;1414436;92;22413;-88
2021/08/26 07:42:11;;;;;;;23.30;13.70;;;;;;;18.07;56.43;99887.37;1408959;92;21356;-87
2021/08/26 07:44:37;;;;;;;21.50;14.37;;;;;;;18.20;56.96;99872.09;1397714;92;21407;-88
2021/08/26 07:47:03;;;;;;;18.97;13.80;;;;;;;18.34;56.35;99878.23;1414877;92;21430;-89
2021/08/26 07:49:29;;;;;;;22.02;13.78;;;;;;;18.38;55.00;99875.42;1411904;92;21356;-87
2021/08/26 07:51:55;;;;;;;17.60;12.07;;;;;;;18.46;54.93;99877.88;1409650;92;21368;-88
2021/08/26 07:54:22;;;;;;;20.00;12.60;;;;;;;18.47;53.04;99878.20;1421577;92;21385;-87
2021/08/26 07:56:48;;;;;;;21.12;13.25;;;;;;;18.54;54.15;99871.45;1411806;92;21363;-87
2021/08/26 07:59:14;;;;;;;21.73;13.22;;;;;;;18.61;53.70;99878.12;1417762;92;21357;-87
2021/08/26 08:01:40;;;;;;;17.52;13.53;;;;;;;18.69;54.20;99866.63;1403366;92;21371;-87
2021/08/26 08:04:06;;;;;;;56.80;13.90;;;;;;;18.79;53.22;99868.05;1407848;92;21385;-87
2021/08/26 08:06:32;;;;;;;19.07;13.15;;;;;;;18.87;54.02;99872.67;1412805;92;22302;-87
2021/08/26 08:08:58;;;;;;;24.12;13.88;;;;;;;19.01;54.08;99868.55;1396349;92;21437;-87
2021/08/26 08:11:25;;;;;;;18.87;11.90;;;;;;;19.10;53.20;99871.27;1410906;92;21423;-88
2021/08/26 08:13:52;;;;;;;19.07;13.03;;;;;;;19.26;53.56;99876.11;1407747;92;21645;-87
2021/08/26 08:16:18;;;;;;;23.05;12.60;;;;;;;19.31;52.10;99872.79;1416758;92;21334;-88
2021/08/26 08:18:44;;;;;;;21.77;13.25;;;;;;;19.36;50.23;99870.25;1416710;92;21371;-88
2021/08/26 08:21:10;;;;;;;23.80;13.38;;;;;;;19.46;51.26;99877.30;1411737;92;21371;-88
2021/08/26 08:23:37;;;;;;;17.42;12.95;;;;;;;19.48;51.39;99879.75;1405208;91;21364;-88
2021/08/26 08:26:03;;;;;;;19.82;12.47;;;;;;;19.49;50.63;99877.39;1417437;92;22568;-88
2021/08/26 08:28:29;;;;;;;19.90;13.05;;;;;;;19.52;49.41;99883.66;1412150;92;21650;-88
2021/08/26 08:30:55;;;;;;;23.55;12.50;;;;;;;19.63;50.37;99878.92;1416509;92;21444;-87
2021/08/26 08:33:21;;;;;;;23.18;12.35;;;;;;;19.71;49.91;99873.80;1395207;92;21349;-88
2021/08/26 08:35:48;;;;;;;23.98;12.80;;;;;;;19.79;50.37;99873.02;1379801;93;21653;-87
2021/08/26 08:38:14;;;;;;;21.52;13.65;;;;;;;19.79;49.75;99875.71;1420827;92;21385;-87
2021/08/26 08:40:55;;;;;;;16.07;10.90;;;;;;;19.88;49.96;99872.71;1395140;93;21399;-87
2021/08/26 08:43:21;;;;;;;;;;;;;;;19.99;49.13;99875.48;1420649;92;22310;-87
2021/08/26 08:45:47;;;;;;;16.93;11.63;;;;;;;19.84;46.41;99875.84;1420359;92;20717;-88
2021/08/26 08:48:14;;;;;;;17.55;11.68;;;;;;;19.98;47.71;99873.03;1393530;93;21539;-87
2021/08/26 08:50:41;;;;;;;23.45;12.68;;;;;;;20.12;48.62;99871.85;1420623;92;21363;-88
2021/08/26 08:53:16;;;;;;;23.02;11.68;;;;;;;20.24;47.92;99871.39;1391355;93;21386;-88
2021/08/26 08:55:45;;;;;;;21.73;11.68;;;;;;;20.20;46.40;99868.05;1419877;92;21452;-90
2021/08/26 08:58:12;;;;;;;18.92;12.50;;;;;;;20.41;48.38;99868.11;1401740;93;21569;-89
2021/08/26 09:00:39;;;;;;;15.55;12.05;;;;;;;20.48;47.63;99866.98;1419696;92;21350;-90
2021/08/26 09:03:05;;;;;;;15.15;11.60;;;;;;;20.47;46.04;99865.33;1402069;93;22523;-89
2021/08/26 09:05:55;;;;;;;20.32;13.10;;;;;;;20.54;47.54;99861.23;1423727;92;21502;-92
2021/08/26 09:08:24;;;;;;;17.95;11.40;;;;;;;20.70;46.96;99863.83;1402362;93;21406;-90
2021/08/26 09:11:14;;;;;;;19.70;11.97;;;;;;;20.65;46.03;99865.84;1423713;92;21444;-90
2021/08/26 09:13:42;;;;;;;19.10;13.63;;;;;;;20.65;46.31;99865.84;1419800;92;21532;-89
2021/08/26 09:16:09;;;;;;;20.32;14.23;;;;;;;20.68;46.58;99851.95;1416082;92;22310;-89
2021/08/26 09:18:36;;;;;;;22.82;12.50;;;;;;;20.79;45.92;99853.58;1412089;92;22384;-90
2021/08/26 09:21:10;;;;;;;20.68;11.83;;;;;;;20.85;45.81;99852.66;1408554;92;21370;-90
2021/08/26 09:23:55;;;;;;;25.77;14.78;;;;;;;20.95;45.69;99859.66;1418172;92;21611;-90
2021/08/26 09:26:25;;;;;;;35.00;13.40;;;;;;;20.98;45.17;99863.23;1418562;92;21453;-91
2021/08/26 09:28:54;;;;;;;12.88;9.78;;;;;;;21.13;45.62;99856.89;1422845;91;22882;-90
2021/08/26 09:31:26;;;;;;;19.12;12.33;;;;;;;21.26;45.03;99854.53;1401279;92;22583;-90
2021/08/26 09:34:18;;;;;;;18.42;12.15;;;;;;;21.25;44.33;99843.98;1418570;91;21408;-90
2021/08/26 09:36:52;;;;;;;14.23;11.80;;;;;;;21.34;44.05;99847.97;1416595;92;21482;-92
2021/08/26 09:39:21;;;;;;;19.27;10.72;;;;;;;21.28;44.01;99842.17;1418496;92;21349;-91
2021/08/26 09:42:05;;;;;;;13.78;10.53;;;;;;;21.32;44.33;99844.69;1412441;92;21475;-91
2021/08/26 09:44:37;;;;;;;12.53;9.25;;;;;;;21.49;44.09;99834.93;1412997;92;21464;-91
2021/08/26 09:47:12;;;;;;;23.45;11.65;;;;;;;21.69;42.57;99832.39;1421360;92;21574;-91
2021/08/26 09:49:40;;;;;;;16.95;10.53;;;;;;;21.69;42.57;99832.39;1416714;92;21391;-90
2021/08/26 09:52:20;;;;;;;11.33;9.35;;;;;;;21.86;43.23;99844.09;1401406;93;22764;-90
2021/08/26 09:54:51;;;;;;;;;;;;;;;21.81;40.63;99844.81;1417645;92;21506;-91
2021/08/26 09:57:28;;;;;;;15.48;10.98;;;;;;;21.80;40.51;99824.30;1409355;92;20238;-91
2021/08/26 09:59:57;;;;;;;17.60;11.53;;;;;;;21.80;40.51;99824.30;1418781;92;21523;-91
2021/08/26 10:02:30;;;;;;;15.85;11.08;;;;;;;22.06;41.65;99844.52;1420208;90;21405;-91
2021/08/26 10:04:58;;;;;;;13.70;10.75;;;;;;;22.14;41.37;99827.17;1426088;90;21355;-91
2021/08/26 10:07:26;;;;;;;21.07;11.73;;;;;;;22.26;41.77;99821.78;1418528;90;21470;-91
2021/08/26 10:09:53;;;;;;;21.70;9.93;;;;;;;22.40;41.53;99829.07;1438350;90;21356;-91
2021/08/26 10:12:19;;;;;;;13.75;10.48;;;;;;;22.56;41.84;99827.47;1434163;90;21363;-90
2021/08/26 10:14:50;;;;;;;39.55;11.65;;;;;;;22.55;41.71;99821.27;1436290;89;21296;-92
2021/08/26 10:17:17;;;;;;;39.42;10.48;;;;;;;22.57;41.15;99825.08;1436142;90;21553;-90
2021/08/26 10:19:44;;;;;;;18.77;9.78;;;;;;;22.69;40.77;99816.41;1432147;90;21420;-90
2021/08/26 10:22:13;;;;;;;17.02;9.95;;;;;;;22.80;39.98;99820.92;1442232;90;21354;-90
2021/08/26 10:24:39;;;;;;;19.40;11.48;;;;;;;22.88;40.37;99820.53;1424062;90;21408;-91
2021/08/26 10:27:17;;;;;;;12.53;10.18;;;;;;;22.95;40.16;99822.56;1431344;90;22369;-92
2021/08/26 10:29:49;;;;;;;34.78;26.23;;;;;;;22.94;39.38;99820.91;1433045;90;22558;-93
2021/08/26 10:32:24;;;;;;;12.78;9.53;;;;;;;23.06;39.41;99819.52;1433708;90;21452;-90
2021/08/26 10:35:15;;;;;;;12.37;8.88;;;;;;;23.04;38.41;99826.21;1446362;90;22255;-91
2021/08/26 10:37:55;;;;;;;17.50;9.73;;;;;;;23.10;38.69;99825.23;1424107;90;21355;-91
2021/08/26 10:40:39;;;;;;;12.95;9.50;;;;;;;23.20;38.09;99826.76;1422934;91;21423;-92
2021/08/26 10:43:07;;;;;;;13.45;9.25;;;;;;;23.27;38.83;99817.95;1436699;90;21406;-92
2021/08/26 10:45:49;;;;;;;14.28;9.15;;;;;;;23.23;38.32;99814.12;1438477;91;21437;-92
2021/08/26 10:48:20;;;;;;;19.40;9.73;;;;;;;23.42;39.16;99817.40;1427094;91;21590;-91
2021/08/26 10:50:49;;;;;;;;;;;;;;;23.66;39.23;99811.25;1403209;92;21437;-92
2021/08/26 10:53:31;;;;;;;15.95;8.70;;;;;;;23.75;37.86;99817.89;1450394;89;20292;-92
2021/08/26 10:56:20;;;;;;;17.85;9.80;;;;;;;23.79;37.99;99827.13;1406035;92;21361;-92
2021/08/26 10:58:56;;;;;;;12.18;9.30;;;;;;;23.87;37.86;99818.59;1411369;92;21362;-91
2021/08/26 11:01:38;;;;;;;17.95;9.53;;;;;;;23.70;36.87;99821.86;1410892;92;21586;-90
2021/08/26 11:04:08;;;;;;;12.70;9.73;;;;;;;23.94;38.18;99827.89;1415739;91;21378;-92
2021/08/26 11:06:37;;;;;;;11.05;8.78;;;;;;;24.01;37.73;99816.34;1492907;91;21273;-91
2021/08/26 11:09:24;;;;;;;12.10;8.55;;;;;;;24.04;37.73;99809.63;1465410;91;21516;-91
2021/08/26 11:11:57;;;;;;;19.05;10.43;;;;;;;24.05;38.53;99812.59;1391337;93;21458;-92
2021/08/26 11:14:24;;;;;;;11.10;8.55;;;;;;;24.14;37.48;99817.87;1390819;94;21675;-92
2021/08/26 11:16:53;;;;;;;13.18;8.70;;;;;;;24.08;36.21;99810.74;1387764;94;21601;-92
2021/08/26 11:19:27;;;;;;;16.42;8.33;;;;;;;24.05;36.27;99812.09;1390860;94;22507;-91
2021/08/26 11:22:00;;;;;;;12.00;8.50;;;;;;;24.13;36.11;99806.75;1388290;94;23463;-92
2021/08/26 11:24:32;;;;;;;11.75;8.20;;;;;;;24.25;37.24;99806.08;1406936;94;22557;-93
2021/08/26 11:27:06;;;;;;;16.23;10.35;;;;;;;24.40;37.84;99804.62;1381920;94;21735;-91
2021/08/26 11:29:37;;;;;;;13.48;9.65;;;;;;;24.46;35.89;99809.08;1383360;94;21645;-92